createdAt,value
2023-03-22T00:02:39.651Z,69.70
2023-03-22T00:17:39.574Z,60.30
2023-03-22T00:32:39.767Z,63.40
2023-03-22T00:47:40.495Z,66.20
2023-03-22T01:02:41.725Z,55.90
2023-03-22T01:17:42.288Z,62.00
2023-03-22T01:32:42.559Z,57.00
2023-03-22T01:47:43.242Z,61.90
2023-03-22T02:02:44.140Z,61.10
2023-03-22T02:17:44.102Z,51.30
2023-03-22T02:32:44.325Z,67.50
2023-03-22T02:47:44.580Z,58.10
2023-03-22T03:02:45.283Z,50.40
2023-03-22T03:17:46.331Z,56.60
2023-03-22T03:32:47.173Z,62.10
2023-03-22T03:47:47.898Z,45.20
2023-03-22T04:02:48.888Z,48.10
2023-03-22T04:17:49.530Z,47.90
2023-03-22T04:32:50.311Z,56.70
2023-03-22T04:47:50.550Z,58.80
2023-03-22T05:02:51.428Z,55.80
2023-03-22T05:17:51.952Z,56.50
2023-03-22T05:32:52.244Z,48.80
2023-03-22T05:47:52.987Z,53.10
2023-03-22T06:02:54.176Z,56.90
2023-03-22T06:17:54.779Z,56.80
2023-03-22T06:32:54.932Z,50.50
2023-03-22T06:47:54.941Z,45.40
2023-03-22T07:02:55.525Z,55.40
2023-03-22T07:17:55.627Z,48.90
2023-03-22T07:32:55.965Z,47.80
2023-03-22T07:47:56.450Z,31.90
2023-03-22T08:02:57.147Z,32.70
2023-03-22T08:17:57.185Z,21.80
2023-03-22T08:32:57.480Z,21.30
2023-03-22T08:47:57.744Z,19.90
2023-03-22T09:02:58.525Z,18.70
2023-03-22T09:17:59.154Z,19.10
2023-03-22T09:32:59.762Z,13.50
2023-03-22T09:48:00.636Z,12.00
2023-03-22T10:03:00.895Z,10.60
2023-03-22T10:18:00.896Z,12.10
2023-03-22T10:33:01.179Z,11.40
2023-03-22T10:48:01.322Z,9.50
2023-03-22T11:03:01.451Z,9.50
2023-03-22T11:18:01.686Z,7.70
2023-03-22T11:33:01.988Z,4.90
2023-03-22T11:48:02.155Z,7.20
2023-03-22T12:03:03.038Z,5.00
2023-03-22T12:18:04.969Z,4.10
2023-03-22T12:33:06.793Z,2.90
2023-03-22T12:48:07.328Z,5.70
2023-03-22T13:03:10.327Z,5.20
2023-03-22T13:18:11.768Z,3.80
2023-03-22T13:33:12.459Z,4.10
2023-03-22T13:48:13.269Z,5.60
2023-03-22T14:03:14.415Z,3.90
2023-03-22T14:18:15.069Z,3.40
2023-03-22T14:46:36.990Z,4.50
2023-03-22T15:01:37.264Z,3.20
2023-03-22T15:16:37.449Z,2.50
2023-03-22T15:31:38.135Z,2.30
2023-03-22T15:46:38.884Z,2.50
2023-03-22T16:01:39.611Z,4.30
2023-03-22T16:16:40.311Z,3.40
2023-03-22T16:31:45.274Z,4.00
2023-03-22T16:46:45.905Z,4.50
2023-03-22T17:01:46.307Z,5.00
2023-03-22T17:16:46.346Z,4.40
2023-03-22T17:31:57.830Z,8.30
2023-03-22T18:01:57.772Z,5.20
2023-03-22T18:16:58.518Z,6.00
2023-03-22T18:46:59.111Z,4.10
2023-03-22T19:02:09.868Z,11.80
2023-03-22T19:17:04.669Z,13.80
2023-03-22T19:32:04.742Z,17.30
2023-03-22T19:47:04.860Z,12.90
2023-03-22T20:02:05.193Z,5.90
2023-03-22T20:17:07.006Z,6.50
2023-03-22T20:32:10.917Z,4.50
2023-03-22T20:47:12.224Z,3.30
2023-03-22T21:02:12.553Z,2.90
2023-03-22T21:17:13.010Z,12.00
2023-03-22T21:32:13.806Z,2.70
2023-03-22T21:47:14.042Z,4.10
2023-03-22T22:02:14.365Z,5.80
2023-03-22T22:17:14.422Z,2.90
2023-03-22T22:32:14.561Z,3.30
2023-03-22T22:47:15.271Z,2.90
2023-03-22T23:02:16.263Z,6.70
2023-03-22T23:17:16.175Z,3.30
2023-03-22T23:32:16.386Z,3.40
2023-03-22T23:47:16.633Z,2.70
